sensor_id;sensor_type;location;lat;lon;timestamp;P1;durP1;ratioP1;P2;durP2;ratioP2
9912;SDS011;41380;52.548;13.344;2022-08-19T00:01:19;15.20;;;13.75;;
9912;SDS011;41380;52.548;13.344;2022-08-19T00:03:46;15.02;;;13.65;;
9912;SDS011;41380;52.548;13.344;2022-08-19T00:06:14;14.77;;;13.48;;
9912;SDS011;41380;52.548;13.344;2022-08-19T00:08:41;14.65;;;13.30;;
9912;SDS011;41380;52.548;13.344;2022-08-19T00:11:08;15.50;;;14.10;;
9912;SDS011;41380;52.548;13.344;2022-08-19T00:13:36;14.68;;;13.27;;
9912;SDS011;41380;52.548;13.344;2022-08-19T00:16:04;15.40;;;14.10;;
9912;SDS011;41380;52.548;13.344;2022-08-19T00:18:32;15.63;;;14.13;;
9912;SDS011;41380;52.548;13.344;2022-08-19T00:20:59;15.23;;;13.77;;
9912;SDS011;41380;52.548;13.344;2022-08-19T00:23:27;14.80;;;13.43;;
9912;SDS011;41380;52.548;13.344;2022-08-19T00:25:54;15.13;;;13.82;;
9912;SDS011;41380;52.548;13.344;2022-08-19T00:28:21;14.30;;;13.10;;
9912;SDS011;41380;52.548;13.344;2022-08-19T00:30:48;15.55;;;14.15;;
9912;SDS011;41380;52.548;13.344;2022-08-19T00:33:18;13.73;;;12.52;;
9912;SDS011;41380;52.548;13.344;2022-08-19T00:35:45;14.88;;;13.55;;
9912;SDS011;41380;52.548;13.344;2022-08-19T00:38:12;14.55;;;13.23;;
9912;SDS011;41380;52.548;13.344;2022-08-19T00:40:39;13.88;;;12.63;;
9912;SDS011;41380;52.548;13.344;2022-08-19T00:43:12;14.07;;;12.85;;
9912;SDS011;41380;52.548;13.344;2022-08-19T00:45:44;13.80;;;12.48;;
9912;SDS011;41380;52.548;13.344;2022-08-19T00:48:12;14.15;;;12.95;;
9912;SDS011;41380;52.548;13.344;2022-08-19T00:50:41;14.55;;;13.25;;
9912;SDS011;41380;52.548;13.344;2022-08-19T00:53:08;14.55;;;13.10;;
9912;SDS011;41380;52.548;13.344;2022-08-19T00:55:36;14.13;;;12.93;;
9912;SDS011;41380;52.548;13.344;2022-08-19T00:58:06;13.45;;;12.35;;
9912;SDS011;41380;52.548;13.344;2022-08-19T01:00:36;15.90;;;14.50;;
9912;SDS011;41380;52.548;13.344;2022-08-19T01:03:03;13.55;;;12.23;;
9912;SDS011;41380;52.548;13.344;2022-08-19T01:05:32;14.15;;;12.95;;
9912;SDS011;41380;52.548;13.344;2022-08-19T01:08:03;15.00;;;13.65;;
9912;SDS011;41380;52.548;13.344;2022-08-19T01:10:32;15.13;;;13.75;;
9912;SDS011;41380;52.548;13.344;2022-08-19T01:13:03;15.90;;;14.40;;
9912;SDS011;41380;52.548;13.344;2022-08-19T01:15:32;16.17;;;14.68;;
9912;SDS011;41380;52.548;13.344;2022-08-19T01:18:01;15.98;;;14.68;;
9912;SDS011;41380;52.548;13.344;2022-08-19T01:20:34;15.40;;;14.20;;
9912;SDS011;41380;52.548;13.344;2022-08-19T01:23:02;16.10;;;14.70;;
9912;SDS011;41380;52.548;13.344;2022-08-19T01:25:31;15.20;;;13.88;;
9912;SDS011;41380;52.548;13.344;2022-08-19T01:28:01;16.35;;;14.93;;
9912;SDS011;41380;52.548;13.344;2022-08-19T01:30:30;17.92;;;16.33;;
9912;SDS011;41380;52.548;13.344;2022-08-19T01:32:59;16.58;;;15.07;;
9912;SDS011;41380;52.548;13.344;2022-08-19T01:35:27;16.52;;;15.07;;
9912;SDS011;41380;52.548;13.344;2022-08-19T01:37:57;15.80;;;14.50;;
9912;SDS011;41380;52.548;13.344;2022-08-19T01:40:28;16.60;;;15.20;;
9912;SDS011;41380;52.548;13.344;2022-08-19T01:42:58;17.52;;;16.02;;
9912;SDS011;41380;52.548;13.344;2022-08-19T01:45:26;16.08;;;14.60;;
9912;SDS011;41380;52.548;13.344;2022-08-19T01:47:54;18.05;;;16.52;;
9912;SDS011;41380;52.548;13.344;2022-08-19T01:50:22;16.98;;;15.52;;
9912;SDS011;41380;52.548;13.344;2022-08-19T01:52:50;16.67;;;15.18;;
9912;SDS011;41380;52.548;13.344;2022-08-19T01:55:18;18.17;;;16.67;;
9912;SDS011;41380;52.548;13.344;2022-08-19T01:57:50;17.33;;;15.73;;
9912;SDS011;41380;52.548;13.344;2022-08-19T02:00:22;23.55;;;19.42;;
9912;SDS011;41380;52.548;13.344;2022-08-19T02:02:50;19.88;;;17.88;;
9912;SDS011;41380;52.548;13.344;2022-08-19T02:05:17;22.50;;;20.13;;
9912;SDS011;41380;52.548;13.344;2022-08-19T02:07:46;25.98;;;23.27;;
9912;SDS011;41380;52.548;13.344;2022-08-19T02:10:15;27.48;;;23.80;;
9912;SDS011;41380;52.548;13.344;2022-08-19T02:12:44;30.10;;;25.08;;
9912;SDS011;41380;52.548;13.344;2022-08-19T02:15:13;31.98;;;25.95;;
9912;SDS011;41380;52.548;13.344;2022-08-19T02:17:40;24.60;;;22.05;;
9912;SDS011;41380;52.548;13.344;2022-08-19T02:20:07;22.48;;;20.08;;
9912;SDS011;41380;52.548;13.344;2022-08-19T02:22:38;22.52;;;20.08;;
9912;SDS011;41380;52.548;13.344;2022-08-19T02:25:07;22.55;;;20.13;;
9912;SDS011;41380;52.548;13.344;2022-08-19T02:27:35;23.23;;;20.95;;
9912;SDS011;41380;52.548;13.344;2022-08-19T02:30:03;23.27;;;20.83;;
9912;SDS011;41380;52.548;13.344;2022-08-19T02:32:34;22.20;;;20.08;;
9912;SDS011;41380;52.548;13.344;2022-08-19T02:35:00;21.77;;;19.63;;
9912;SDS011;41380;52.548;13.344;2022-08-19T02:37:28;22.02;;;19.83;;
9912;SDS011;41380;52.548;13.344;2022-08-19T02:40:13;21.73;;;19.45;;
9912;SDS011;41380;52.548;13.344;2022-08-19T02:42:40;23.38;;;20.92;;
9912;SDS011;41380;52.548;13.344;2022-08-19T02:45:08;23.60;;;21.20;;
9912;SDS011;41380;52.548;13.344;2022-08-19T02:47:37;28.38;;;23.23;;
9912;SDS011;41380;52.548;13.344;2022-08-19T02:50:04;26.67;;;23.85;;
9912;SDS011;41380;52.548;13.344;2022-08-19T02:52:33;22.30;;;19.95;;
9912;SDS011;41380;52.548;13.344;2022-08-19T02:55:00;23.05;;;20.60;;
9912;SDS011;41380;52.548;13.344;2022-08-19T02:57:27;22.40;;;20.17;;
9912;SDS011;41380;52.548;13.344;2022-08-19T02:59:57;29.10;;;22.70;;
9912;SDS011;41380;52.548;13.344;2022-08-19T03:02:24;23.65;;;21.25;;
9912;SDS011;41380;52.548;13.344;2022-08-19T03:04:53;24.23;;;21.73;;
9912;SDS011;41380;52.548;13.344;2022-08-19T03:07:20;25.40;;;22.70;;
9912;SDS011;41380;52.548;13.344;2022-08-19T03:09:47;25.17;;;22.77;;
9912;SDS011;41380;52.548;13.344;2022-08-19T03:12:14;24.98;;;22.27;;
9912;SDS011;41380;52.548;13.344;2022-08-19T03:14:41;24.65;;;21.95;;
9912;SDS011;41380;52.548;13.344;2022-08-19T03:17:08;24.85;;;22.35;;
9912;SDS011;41380;52.548;13.344;2022-08-19T03:19:35;23.73;;;21.17;;
9912;SDS011;41380;52.548;13.344;2022-08-19T03:22:04;25.40;;;22.77;;
9912;SDS011;41380;52.548;13.344;2022-08-19T03:24:31;24.95;;;22.30;;
9912;SDS011;41380;52.548;13.344;2022-08-19T03:26:58;23.95;;;21.60;;
9912;SDS011;41380;52.548;13.344;2022-08-19T03:29:25;24.88;;;22.27;;
9912;SDS011;41380;52.548;13.344;2022-08-19T03:31:54;25.42;;;22.98;;
9912;SDS011;41380;52.548;13.344;2022-08-19T03:34:21;25.10;;;22.60;;
9912;SDS011;41380;52.548;13.344;2022-08-19T03:36:51;23.13;;;20.88;;
9912;SDS011;41380;52.548;13.344;2022-08-19T03:39:20;26.90;;;24.00;;
9912;SDS011;41380;52.548;13.344;2022-08-19T03:41:48;23.40;;;20.48;;
9912;SDS011;41380;52.548;13.344;2022-08-19T03:44:17;24.33;;;21.92;;
9912;SDS011;41380;52.548;13.344;2022-08-19T03:46:46;25.00;;;22.60;;
9912;SDS011;41380;52.548;13.344;2022-08-19T03:49:13;24.70;;;22.27;;
9912;SDS011;41380;52.548;13.344;2022-08-19T03:51:40;22.88;;;20.67;;
9912;SDS011;41380;52.548;13.344;2022-08-19T03:54:09;23.80;;;21.40;;
9912;SDS011;41380;52.548;13.344;2022-08-19T03:56:39;25.13;;;22.05;;
9912;SDS011;41380;52.548;13.344;2022-08-19T03:59:09;21.95;;;19.77;;
9912;SDS011;41380;52.548;13.344;2022-08-19T04:01:39;22.92;;;20.70;;
9912;SDS011;41380;52.548;13.344;2022-08-19T04:04:06;21.70;;;19.73;;
9912;SDS011;41380;52.548;13.344;2022-08-19T04:06:33;24.13;;;21.92;;
9912;SDS011;41380;52.548;13.344;2022-08-19T04:09:04;23.65;;;21.42;;
9912;SDS011;41380;52.548;13.344;2022-08-19T04:11:35;22.23;;;20.02;;
9912;SDS011;41380;52.548;13.344;2022-08-19T04:14:08;22.85;;;20.83;;
9912;SDS011;41380;52.548;13.344;2022-08-19T04:16:36;24.15;;;21.75;;
9912;SDS011;41380;52.548;13.344;2022-08-19T04:19:05;21.33;;;19.48;;
9912;SDS011;41380;52.548;13.344;2022-08-19T04:21:32;20.73;;;18.90;;
9912;SDS011;41380;52.548;13.344;2022-08-19T04:24:00;21.55;;;19.60;;
9912;SDS011;41380;52.548;13.344;2022-08-19T04:26:28;20.95;;;19.25;;
9912;SDS011;41380;52.548;13.344;2022-08-19T04:28:58;21.80;;;19.85;;
9912;SDS011;41380;52.548;13.344;2022-08-19T04:31:27;22.02;;;19.88;;
9912;SDS011;41380;52.548;13.344;2022-08-19T04:33:56;19.00;;;17.35;;
9912;SDS011;41380;52.548;13.344;2022-08-19T04:36:25;20.08;;;18.25;;
9912;SDS011;41380;52.548;13.344;2022-08-19T04:38:54;18.42;;;16.75;;
9912;SDS011;41380;52.548;13.344;2022-08-19T04:41:22;19.98;;;18.25;;
9912;SDS011;41380;52.548;13.344;2022-08-19T04:44:09;19.65;;;17.83;;
9912;SDS011;41380;52.548;13.344;2022-08-19T04:46:38;17.77;;;16.20;;
9912;SDS011;41380;52.548;13.344;2022-08-19T04:49:06;19.38;;;17.73;;
9912;SDS011;41380;52.548;13.344;2022-08-19T04:51:34;20.52;;;18.83;;
9912;SDS011;41380;52.548;13.344;2022-08-19T04:54:02;19.33;;;17.55;;
9912;SDS011;41380;52.548;13.344;2022-08-19T04:56:30;19.35;;;17.70;;
9912;SDS011;41380;52.548;13.344;2022-08-19T04:58:56;17.48;;;15.82;;
9912;SDS011;41380;52.548;13.344;2022-08-19T05:01:28;18.80;;;16.98;;
9912;SDS011;41380;52.548;13.344;2022-08-19T05:03:59;19.50;;;17.77;;
9912;SDS011;41380;52.548;13.344;2022-08-19T05:06:28;19.58;;;17.88;;
9912;SDS011;41380;52.548;13.344;2022-08-19T05:08:58;18.73;;;16.92;;
9912;SDS011;41380;52.548;13.344;2022-08-19T05:11:26;19.30;;;17.30;;
9912;SDS011;41380;52.548;13.344;2022-08-19T05:13:54;17.27;;;15.88;;
9912;SDS011;41380;52.548;13.344;2022-08-19T05:16:22;17.10;;;15.48;;
9912;SDS011;41380;52.548;13.344;2022-08-19T05:18:50;18.42;;;16.83;;
9912;SDS011;41380;52.548;13.344;2022-08-19T05:21:36;17.92;;;16.33;;
9912;SDS011;41380;52.548;13.344;2022-08-19T05:24:23;18.23;;;16.40;;
9912;SDS011;41380;52.548;13.344;2022-08-19T05:26:51;17.35;;;15.75;;
9912;SDS011;41380;52.548;13.344;2022-08-19T05:29:22;16.95;;;15.45;;
9912;SDS011;41380;52.548;13.344;2022-08-19T05:31:50;16.92;;;15.32;;
9912;SDS011;41380;52.548;13.344;2022-08-19T05:34:18;17.70;;;16.10;;
9912;SDS011;41380;52.548;13.344;2022-08-19T05:36:51;16.20;;;14.70;;
9912;SDS011;41380;52.548;13.344;2022-08-19T05:39:23;16.15;;;14.75;;
9912;SDS011;41380;52.548;13.344;2022-08-19T05:41:52;15.32;;;13.80;;
9912;SDS011;41380;52.548;13.344;2022-08-19T05:44:22;16.67;;;15.25;;
9912;SDS011;41380;52.548;13.344;2022-08-19T05:46:49;16.52;;;15.00;;
9912;SDS011;41380;52.548;13.344;2022-08-19T05:49:18;15.27;;;13.88;;
9912;SDS011;41380;52.548;13.344;2022-08-19T05:51:47;14.60;;;13.30;;
9912;SDS011;41380;52.548;13.344;2022-08-19T05:54:16;14.63;;;13.10;;
9912;SDS011;41380;52.548;13.344;2022-08-19T05:56:44;16.00;;;13.35;;
9912;SDS011;41380;52.548;13.344;2022-08-19T05:59:13;14.52;;;13.18;;
9912;SDS011;41380;52.548;13.344;2022-08-19T06:01:42;14.68;;;13.38;;
9912;SDS011;41380;52.548;13.344;2022-08-19T06:04:12;16.05;;;12.75;;
9912;SDS011;41380;52.548;13.344;2022-08-19T06:06:40;15.35;;;13.88;;
9912;SDS011;41380;52.548;13.344;2022-08-19T06:09:07;14.75;;;13.45;;
9912;SDS011;41380;52.548;13.344;2022-08-19T06:11:36;14.25;;;12.85;;
9912;SDS011;41380;52.548;13.344;2022-08-19T06:14:06;13.70;;;12.60;;
9912;SDS011;41380;52.548;13.344;2022-08-19T06:16:35;14.85;;;13.40;;
9912;SDS011;41380;52.548;13.344;2022-08-19T06:19:04;15.20;;;13.77;;
9912;SDS011;41380;52.548;13.344;2022-08-19T06:21:32;16.30;;;14.15;;
9912;SDS011;41380;52.548;13.344;2022-08-19T06:24:03;15.02;;;13.57;;
9912;SDS011;41380;52.548;13.344;2022-08-19T06:26:31;15.32;;;13.82;;
9912;SDS011;41380;52.548;13.344;2022-08-19T06:29:01;14.50;;;13.30;;
9912;SDS011;41380;52.548;13.344;2022-08-19T06:31:28;14.35;;;13.07;;
9912;SDS011;41380;52.548;13.344;2022-08-19T06:33:58;14.95;;;13.65;;
9912;SDS011;41380;52.548;13.344;2022-08-19T06:36:28;15.45;;;14.20;;
9912;SDS011;41380;52.548;13.344;2022-08-19T06:38:59;14.68;;;13.38;;
9912;SDS011;41380;52.548;13.344;2022-08-19T06:41:28;15.32;;;14.02;;
9912;SDS011;41380;52.548;13.344;2022-08-19T06:43:56;14.40;;;13.10;;
9912;SDS011;41380;52.548;13.344;2022-08-19T06:46:25;15.43;;;13.95;;
9912;SDS011;41380;52.548;13.344;2022-08-19T06:48:52;15.13;;;13.57;;
9912;SDS011;41380;52.548;13.344;2022-08-19T06:51:20;15.43;;;14.02;;
9912;SDS011;41380;52.548;13.344;2022-08-19T06:53:49;15.55;;;14.25;;
9912;SDS011;41380;52.548;13.344;2022-08-19T06:56:18;14.70;;;13.40;;
9912;SDS011;41380;52.548;13.344;2022-08-19T06:58:46;14.85;;;13.43;;
9912;SDS011;41380;52.548;13.344;2022-08-19T07:01:16;15.75;;;14.35;;
9912;SDS011;41380;52.548;13.344;2022-08-19T07:03:44;15.98;;;14.57;;
9912;SDS011;41380;52.548;13.344;2022-08-19T07:06:13;14.65;;;13.48;;
9912;SDS011;41380;52.548;13.344;2022-08-19T07:08:43;16.50;;;14.95;;
9912;SDS011;41380;52.548;13.344;2022-08-19T07:11:12;16.23;;;14.82;;
9912;SDS011;41380;52.548;13.344;2022-08-19T07:13:40;15.85;;;14.55;;
9912;SDS011;41380;52.548;13.344;2022-08-19T07:16:09;16.20;;;14.57;;
9912;SDS011;41380;52.548;13.344;2022-08-19T07:18:37;16.10;;;14.75;;
9912;SDS011;41380;52.548;13.344;2022-08-19T07:21:07;15.77;;;14.43;;
9912;SDS011;41380;52.548;13.344;2022-08-19T07:23:36;17.60;;;16.13;;
9912;SDS011;41380;52.548;13.344;2022-08-19T07:26:04;17.05;;;15.45;;
9912;SDS011;41380;52.548;13.344;2022-08-19T07:28:32;17.23;;;15.73;;
9912;SDS011;41380;52.548;13.344;2022-08-19T07:30:59;16.38;;;14.93;;
9912;SDS011;41380;52.548;13.344;2022-08-19T07:33:28;15.45;;;14.13;;
9912;SDS011;41380;52.548;13.344;2022-08-19T07:35:57;16.13;;;14.82;;
9912;SDS011;41380;52.548;13.344;2022-08-19T07:38:26;17.38;;;15.98;;
9912;SDS011;41380;52.548;13.344;2022-08-19T07:40:53;16.80;;;15.23;;
9912;SDS011;41380;52.548;13.344;2022-08-19T07:43:20;17.13;;;15.65;;
9912;SDS011;41380;52.548;13.344;2022-08-19T07:45:50;16.63;;;15.13;;
9912;SDS011;41380;52.548;13.344;2022-08-19T07:48:18;17.65;;;16.15;;
9912;SDS011;41380;52.548;13.344;2022-08-19T07:50:48;16.70;;;15.25;;
9912;SDS011;41380;52.548;13.344;2022-08-19T07:53:15;16.65;;;15.25;;
9912;SDS011;41380;52.548;13.344;2022-08-19T07:55:44;16.85;;;15.38;;
9912;SDS011;41380;52.548;13.344;2022-08-19T07:58:11;17.77;;;16.27;;
9912;SDS011;41380;52.548;13.344;2022-08-19T08:00:41;16.63;;;15.32;;
9912;SDS011;41380;52.548;13.344;2022-08-19T08:03:12;19.17;;;17.20;;
9912;SDS011;41380;52.548;13.344;2022-08-19T08:05:39;17.70;;;16.40;;
9912;SDS011;41380;52.548;13.344;2022-08-19T08:08:24;18.50;;;17.00;;
9912;SDS011;41380;52.548;13.344;2022-08-19T08:11:09;18.20;;;16.65;;
9912;SDS011;41380;52.548;13.344;2022-08-19T08:13:37;18.02;;;16.48;;
9912;SDS011;41380;52.548;13.344;2022-08-19T08:16:06;17.98;;;16.58;;
9912;SDS011;41380;52.548;13.344;2022-08-19T08:18:33;18.60;;;16.92;;
9912;SDS011;41380;52.548;13.344;2022-08-19T08:21:06;18.05;;;16.50;;
9912;SDS011;41380;52.548;13.344;2022-08-19T08:23:33;18.17;;;16.67;;
9912;SDS011;41380;52.548;13.344;2022-08-19T08:26:00;19.02;;;17.52;;
9912;SDS011;41380;52.548;13.344;2022-08-19T08:28:31;17.98;;;16.48;;
9912;SDS011;41380;52.548;13.344;2022-08-19T08:30:58;17.80;;;16.35;;
9912;SDS011;41380;52.548;13.344;2022-08-19T08:33:26;19.25;;;17.60;;
9912;SDS011;41380;52.548;13.344;2022-08-19T08:35:53;18.58;;;16.90;;
9912;SDS011;41380;52.548;13.344;2022-08-19T08:38:20;18.42;;;16.92;;
9912;SDS011;41380;52.548;13.344;2022-08-19T08:40:47;19.83;;;18.13;;
9912;SDS011;41380;52.548;13.344;2022-08-19T08:43:21;18.95;;;17.25;;
9912;SDS011;41380;52.548;13.344;2022-08-19T08:45:55;18.00;;;16.52;;
9912;SDS011;41380;52.548;13.344;2022-08-19T08:48:30;18.15;;;16.50;;
9912;SDS011;41380;52.548;13.344;2022-08-19T08:51:04;17.55;;;16.15;;
9912;SDS011;41380;52.548;13.344;2022-08-19T08:53:35;16.92;;;15.52;;
9912;SDS011;41380;52.548;13.344;2022-08-19T08:56:04;17.80;;;16.15;;
9912;SDS011;41380;52.548;13.344;2022-08-19T08:58:40;17.80;;;16.27;;
9912;SDS011;41380;52.548;13.344;2022-08-19T09:01:15;16.80;;;15.50;;
9912;SDS011;41380;52.548;13.344;2022-08-19T09:03:42;17.25;;;15.85;;
9912;SDS011;41380;52.548;13.344;2022-08-19T09:06:12;17.48;;;15.77;;
9912;SDS011;41380;52.548;13.344;2022-08-19T09:08:47;18.05;;;16.48;;
9912;SDS011;41380;52.548;13.344;2022-08-19T09:11:19;17.50;;;15.93;;
9912;SDS011;41380;52.548;13.344;2022-08-19T09:13:58;17.00;;;15.55;;
9912;SDS011;41380;52.548;13.344;2022-08-19T09:16:36;16.85;;;15.45;;
9912;SDS011;41380;52.548;13.344;2022-08-19T09:19:06;16.13;;;14.73;;
9912;SDS011;41380;52.548;13.344;2022-08-19T09:21:35;15.93;;;14.43;;
9912;SDS011;41380;52.548;13.344;2022-08-19T09:24:03;15.25;;;13.95;;
9912;SDS011;41380;52.548;13.344;2022-08-19T09:26:31;15.13;;;13.93;;
9912;SDS011;41380;52.548;13.344;2022-08-19T09:28:59;15.38;;;14.13;;
9912;SDS011;41380;52.548;13.344;2022-08-19T09:31:28;14.70;;;13.60;;
9912;SDS011;41380;52.548;13.344;2022-08-19T09:33:59;14.25;;;13.05;;
9912;SDS011;41380;52.548;13.344;2022-08-19T09:36:28;14.13;;;12.93;;
9912;SDS011;41380;52.548;13.344;2022-08-19T09:38:57;14.07;;;12.68;;
9912;SDS011;41380;52.548;13.344;2022-08-19T09:41:26;13.85;;;12.65;;
9912;SDS011;41380;52.548;13.344;2022-08-19T09:43:53;14.10;;;12.93;;
9912;SDS011;41380;52.548;13.344;2022-08-19T09:46:22;13.32;;;12.20;;
9912;SDS011;41380;52.548;13.344;2022-08-19T09:48:51;13.05;;;11.95;;
9912;SDS011;41380;52.548;13.344;2022-08-19T09:51:20;13.70;;;12.60;;
9912;SDS011;41380;52.548;13.344;2022-08-19T09:53:48;13.68;;;12.57;;
9912;SDS011;41380;52.548;13.344;2022-08-19T09:56:16;14.13;;;12.93;;
9912;SDS011;41380;52.548;13.344;2022-08-19T09:58:44;12.95;;;11.95;;
9912;SDS011;41380;52.548;13.344;2022-08-19T10:01:15;13.35;;;12.32;;
9912;SDS011;41380;52.548;13.344;2022-08-19T10:03:47;13.18;;;11.98;;
9912;SDS011;41380;52.548;13.344;2022-08-19T10:06:15;13.20;;;12.10;;
9912;SDS011;41380;52.548;13.344;2022-08-19T10:08:44;12.45;;;11.38;;
9912;SDS011;41380;52.548;13.344;2022-08-19T10:11:12;13.20;;;12.13;;
9912;SDS011;41380;52.548;13.344;2022-08-19T10:13:42;13.75;;;12.48;;
9912;SDS011;41380;52.548;13.344;2022-08-19T10:16:10;14.23;;;12.82;;
9912;SDS011;41380;52.548;13.344;2022-08-19T10:18:39;12.80;;;11.75;;
9912;SDS011;41380;52.548;13.344;2022-08-19T10:21:10;13.77;;;12.50;;
9912;SDS011;41380;52.548;13.344;2022-08-19T10:23:39;13.10;;;11.90;;
9912;SDS011;41380;52.548;13.344;2022-08-19T10:26:11;13.85;;;12.60;;
9912;SDS011;41380;52.548;13.344;2022-08-19T10:28:40;13.02;;;11.98;;
9912;SDS011;41380;52.548;13.344;2022-08-19T10:31:08;13.45;;;12.10;;
9912;SDS011;41380;52.548;13.344;2022-08-19T10:33:38;14.40;;;13.00;;
9912;SDS011;41380;52.548;13.344;2022-08-19T10:36:07;12.30;;;11.30;;
9912;SDS011;41380;52.548;13.344;2022-08-19T10:38:35;12.02;;;11.02;;
9912;SDS011;41380;52.548;13.344;2022-08-19T10:41:06;12.63;;;11.52;;
9912;SDS011;41380;52.548;13.344;2022-08-19T10:43:35;13.32;;;12.23;;
9912;SDS011;41380;52.548;13.344;2022-08-19T10:46:03;13.32;;;12.15;;
9912;SDS011;41380;52.548;13.344;2022-08-19T10:48:31;13.10;;;11.90;;
9912;SDS011;41380;52.548;13.344;2022-08-19T10:50:59;13.23;;;11.82;;
9912;SDS011;41380;52.548;13.344;2022-08-19T10:53:44;14.50;;;13.20;;
9912;SDS011;41380;52.548;13.344;2022-08-19T10:56:10;12.68;;;11.60;;
9912;SDS011;41380;52.548;13.344;2022-08-19T10:58:57;13.15;;;12.10;;
9912;SDS011;41380;52.548;13.344;2022-08-19T11:01:25;13.88;;;12.68;;
9912;SDS011;41380;52.548;13.344;2022-08-19T11:03:54;14.65;;;13.40;;
9912;SDS011;41380;52.548;13.344;2022-08-19T11:06:23;14.02;;;12.75;;
9912;SDS011;41380;52.548;13.344;2022-08-19T11:08:51;14.23;;;13.02;;
9912;SDS011;41380;52.548;13.344;2022-08-19T11:11:20;13.95;;;12.43;;
9912;SDS011;41380;52.548;13.344;2022-08-19T11:13:48;13.35;;;12.27;;
9912;SDS011;41380;52.548;13.344;2022-08-19T11:16:19;13.57;;;12.32;;
9912;SDS011;41380;52.548;13.344;2022-08-19T11:18:48;13.20;;;12.00;;
9912;SDS011;41380;52.548;13.344;2022-08-19T11:21:18;12.38;;;11.38;;
9912;SDS011;41380;52.548;13.344;2022-08-19T11:23:47;12.38;;;11.38;;
9912;SDS011;41380;52.548;13.344;2022-08-19T11:26:16;13.02;;;11.90;;
9912;SDS011;41380;52.548;13.344;2022-08-19T11:28:44;12.63;;;11.63;;
9912;SDS011;41380;52.548;13.344;2022-08-19T11:31:14;12.57;;;11.57;;
9912;SDS011;41380;52.548;13.344;2022-08-19T11:33:44;12.60;;;11.65;;
9912;SDS011;41380;52.548;13.344;2022-08-19T11:36:12;12.15;;;11.13;;
9912;SDS011;41380;52.548;13.344;2022-08-19T11:38:42;11.38;;;10.48;;
9912;SDS011;41380;52.548;13.344;2022-08-19T11:41:09;11.50;;;10.55;;
9912;SDS011;41380;52.548;13.344;2022-08-19T11:43:37;11.98;;;10.98;;
9912;SDS011;41380;52.548;13.344;2022-08-19T11:46:05;11.80;;;10.70;;
9912;SDS011;41380;52.548;13.344;2022-08-19T11:48:33;10.80;;;9.98;;
9912;SDS011;41380;52.548;13.344;2022-08-19T11:51:03;10.60;;;9.80;;
9912;SDS011;41380;52.548;13.344;2022-08-19T11:53:32;10.43;;;9.63;;
9912;SDS011;41380;52.548;13.344;2022-08-19T11:56:02;11.30;;;10.18;;
9912;SDS011;41380;52.548;13.344;2022-08-19T11:58:30;11.93;;;10.75;;
9912;SDS011;41380;52.548;13.344;2022-08-19T12:00:57;11.25;;;10.27;;
9912;SDS011;41380;52.548;13.344;2022-08-19T12:03:25;10.57;;;9.68;;
9912;SDS011;41380;52.548;13.344;2022-08-19T12:05:52;10.95;;;10.05;;
9912;SDS011;41380;52.548;13.344;2022-08-19T12:08:21;11.35;;;10.25;;
9912;SDS011;41380;52.548;13.344;2022-08-19T12:10:48;11.13;;;10.23;;
9912;SDS011;41380;52.548;13.344;2022-08-19T12:13:14;10.25;;;9.45;;
9912;SDS011;41380;52.548;13.344;2022-08-19T12:15:43;9.95;;;9.05;;
9912;SDS011;41380;52.548;13.344;2022-08-19T12:18:11;10.05;;;9.23;;
9912;SDS011;41380;52.548;13.344;2022-08-19T12:20:47;10.23;;;9.43;;
9912;SDS011;41380;52.548;13.344;2022-08-19T12:23:17;10.15;;;9.25;;
9912;SDS011;41380;52.548;13.344;2022-08-19T12:25:45;10.13;;;9.23;;
9912;SDS011;41380;52.548;13.344;2022-08-19T12:28:16;9.95;;;9.13;;
9912;SDS011;41380;52.548;13.344;2022-08-19T12:30:45;9.30;;;8.55;;
9912;SDS011;41380;52.548;13.344;2022-08-19T12:33:12;9.70;;;8.80;;
9912;SDS011;41380;52.548;13.344;2022-08-19T12:35:41;9.93;;;9.02;;
9912;SDS011;41380;52.548;13.344;2022-08-19T12:38:11;8.73;;;8.05;;
9912;SDS011;41380;52.548;13.344;2022-08-19T12:40:38;9.30;;;8.50;;
9912;SDS011;41380;52.548;13.344;2022-08-19T12:43:05;9.85;;;8.95;;
9912;SDS011;41380;52.548;13.344;2022-08-19T12:45:32;9.05;;;8.35;;
9912;SDS011;41380;52.548;13.344;2022-08-19T12:47:59;8.82;;;8.02;;
9912;SDS011;41380;52.548;13.344;2022-08-19T12:50:29;9.20;;;8.40;;
9912;SDS011;41380;52.548;13.344;2022-08-19T12:52:56;9.43;;;8.63;;
9912;SDS011;41380;52.548;13.344;2022-08-19T12:55:25;9.82;;;8.82;;
9912;SDS011;41380;52.548;13.344;2022-08-19T12:57:53;9.65;;;8.85;;
9912;SDS011;41380;52.548;13.344;2022-08-19T13:00:21;9.30;;;8.60;;
9912;SDS011;41380;52.548;13.344;2022-08-19T13:02:49;10.32;;;9.43;;
9912;SDS011;41380;52.548;13.344;2022-08-19T13:05:18;9.75;;;8.95;;
9912;SDS011;41380;52.548;13.344;2022-08-19T13:07:48;9.95;;;9.18;;
9912;SDS011;41380;52.548;13.344;2022-08-19T13:10:17;10.80;;;9.95;;
9912;SDS011;41380;52.548;13.344;2022-08-19T13:12:48;11.50;;;10.48;;
9912;SDS011;41380;52.548;13.344;2022-08-19T13:15:18;12.50;;;11.38;;
9912;SDS011;41380;52.548;13.344;2022-08-19T13:17:49;10.90;;;9.90;;
9912;SDS011;41380;52.548;13.344;2022-08-19T13:20:18;11.80;;;10.75;;
9912;SDS011;41380;52.548;13.344;2022-08-19T13:22:46;10.43;;;9.43;;
9912;SDS011;41380;52.548;13.344;2022-08-19T13:25:14;10.73;;;9.82;;
9912;SDS011;41380;52.548;13.344;2022-08-19T13:27:44;10.70;;;9.70;;
9912;SDS011;41380;52.548;13.344;2022-08-19T13:30:14;10.88;;;9.77;;
9912;SDS011;41380;52.548;13.344;2022-08-19T13:32:56;10.65;;;9.75;;
9912;SDS011;41380;52.548;13.344;2022-08-19T13:35:39;10.68;;;9.68;;
9912;SDS011;41380;52.548;13.344;2022-08-19T13:38:08;10.60;;;9.63;;
9912;SDS011;41380;52.548;13.344;2022-08-19T13:40:35;9.70;;;8.90;;
9912;SDS011;41380;52.548;13.344;2022-08-19T13:43:03;10.88;;;9.98;;
9912;SDS011;41380;52.548;13.344;2022-08-19T13:45:32;10.23;;;9.35;;
9912;SDS011;41380;52.548;13.344;2022-08-19T13:48:00;10.52;;;9.73;;
9912;SDS011;41380;52.548;13.344;2022-08-19T13:50:31;12.60;;;10.63;;
9912;SDS011;41380;52.548;13.344;2022-08-19T13:52:59;11.43;;;10.32;;
9912;SDS011;41380;52.548;13.344;2022-08-19T13:55:28;11.27;;;10.38;;
9912;SDS011;41380;52.548;13.344;2022-08-19T13:57:55;11.10;;;10.15;;
9912;SDS011;41380;52.548;13.344;2022-08-19T14:00:26;10.35;;;9.50;;
9912;SDS011;41380;52.548;13.344;2022-08-19T14:02:56;11.38;;;10.43;;
9912;SDS011;41380;52.548;13.344;2022-08-19T14:05:24;10.18;;;9.30;;
9912;SDS011;41380;52.548;13.344;2022-08-19T14:07:53;11.15;;;10.10;;
9912;SDS011;41380;52.548;13.344;2022-08-19T14:10:20;11.10;;;10.20;;
9912;SDS011;41380;52.548;13.344;2022-08-19T14:12:51;11.45;;;10.35;;
9912;SDS011;41380;52.548;13.344;2022-08-19T14:15:20;11.10;;;10.10;;
9912;SDS011;41380;52.548;13.344;2022-08-19T14:17:48;11.45;;;10.55;;
9912;SDS011;41380;52.548;13.344;2022-08-19T14:20:16;10.93;;;9.93;;
9912;SDS011;41380;52.548;13.344;2022-08-19T14:22:45;10.68;;;9.68;;
9912;SDS011;41380;52.548;13.344;2022-08-19T14:25:15;10.15;;;9.30;;
9912;SDS011;41380;52.548;13.344;2022-08-19T14:27:45;10.40;;;9.60;;
9912;SDS011;41380;52.548;13.344;2022-08-19T14:30:20;9.93;;;9.13;;
9912;SDS011;41380;52.548;13.344;2022-08-19T14:32:50;11.30;;;10.30;;
9912;SDS011;41380;52.548;13.344;2022-08-19T14:35:19;10.52;;;9.52;;